sensor_id;sensor_type;location;lat;lon;timestamp;P1;durP1;ratioP1;P2;durP2;ratioP2
9481;SDS011;4779;48.062;11.672;2023-06-10T00:00:48;7.63;;;6.82;;
9481;SDS011;4779;48.062;11.672;2023-06-10T00:03:15;6.20;;;5.70;;
9481;SDS011;4779;48.062;11.672;2023-06-10T00:05:42;7.20;;;6.53;;
9481;SDS011;4779;48.062;11.672;2023-06-10T00:08:11;6.95;;;6.35;;
9481;SDS011;4779;48.062;11.672;2023-06-10T00:10:40;7.47;;;6.78;;
9481;SDS011;4779;48.062;11.672;2023-06-10T00:13:07;7.53;;;6.93;;
9481;SDS011;4779;48.062;11.672;2023-06-10T00:15:36;6.78;;;6.25;;
9481;SDS011;4779;48.062;11.672;2023-06-10T00:18:03;7.65;;;6.97;;
9481;SDS011;4779;48.062;11.672;2023-06-10T00:20:30;6.65;;;6.15;;
9481;SDS011;4779;48.062;11.672;2023-06-10T00:22:57;7.35;;;6.65;;
9481;SDS011;4779;48.062;11.672;2023-06-10T00:25:27;7.32;;;6.63;;
9481;SDS011;4779;48.062;11.672;2023-06-10T00:27:54;7.20;;;6.50;;
9481;SDS011;4779;48.062;11.672;2023-06-10T00:30:21;6.93;;;6.32;;
9481;SDS011;4779;48.062;11.672;2023-06-10T00:32:48;7.43;;;6.72;;
9481;SDS011;4779;48.062;11.672;2023-06-10T00:35:15;6.55;;;5.95;;
9481;SDS011;4779;48.062;11.672;2023-06-10T00:37:42;7.28;;;6.68;;
9481;SDS011;4779;48.062;11.672;2023-06-10T00:40:09;6.68;;;6.18;;
9481;SDS011;4779;48.062;11.672;2023-06-10T00:42:38;6.90;;;6.30;;
9481;SDS011;4779;48.062;11.672;2023-06-10T00:45:05;7.30;;;6.57;;
9481;SDS011;4779;48.062;11.672;2023-06-10T00:47:33;7.07;;;6.47;;
9481;SDS011;4779;48.062;11.672;2023-06-10T00:50:00;7.50;;;6.80;;
9481;SDS011;4779;48.062;11.672;2023-06-10T00:52:28;7.70;;;7.00;;
9481;SDS011;4779;48.062;11.672;2023-06-10T00:54:56;7.30;;;6.70;;
9481;SDS011;4779;48.062;11.672;2023-06-10T00:57:24;8.05;;;7.28;;
9481;SDS011;4779;48.062;11.672;2023-06-10T00:59:54;7.32;;;6.63;;
9481;SDS011;4779;48.062;11.672;2023-06-10T01:02:21;7.35;;;6.75;;
9481;SDS011;4779;48.062;11.672;2023-06-10T01:04:48;7.90;;;7.20;;
9481;SDS011;4779;48.062;11.672;2023-06-10T01:07:19;6.85;;;6.35;;
9481;SDS011;4779;48.062;11.672;2023-06-10T01:09:54;7.82;;;7.15;;
9481;SDS011;4779;48.062;11.672;2023-06-10T01:12:26;7.82;;;7.05;;
9481;SDS011;4779;48.062;11.672;2023-06-10T01:15:00;7.65;;;7.05;;
9481;SDS011;4779;48.062;11.672;2023-06-10T01:17:29;8.18;;;7.47;;
9481;SDS011;4779;48.062;11.672;2023-06-10T01:19:56;7.55;;;6.85;;
9481;SDS011;4779;48.062;11.672;2023-06-10T01:22:26;7.63;;;6.93;;
9481;SDS011;4779;48.062;11.672;2023-06-10T01:24:53;8.15;;;7.45;;
9481;SDS011;4779;48.062;11.672;2023-06-10T01:27:23;7.65;;;6.95;;
9481;SDS011;4779;48.062;11.672;2023-06-10T01:29:56;7.38;;;6.68;;
9481;SDS011;4779;48.062;11.672;2023-06-10T01:32:29;6.85;;;6.25;;
9481;SDS011;4779;48.062;11.672;2023-06-10T01:34:59;7.30;;;6.60;;
9481;SDS011;4779;48.062;11.672;2023-06-10T01:37:29;7.28;;;6.68;;
9481;SDS011;4779;48.062;11.672;2023-06-10T01:39:58;7.43;;;6.82;;
9481;SDS011;4779;48.062;11.672;2023-06-10T01:42:26;7.15;;;6.55;;
9481;SDS011;4779;48.062;11.672;2023-06-10T01:44:54;7.45;;;6.85;;
9481;SDS011;4779;48.062;11.672;2023-06-10T01:47:21;7.25;;;6.65;;
9481;SDS011;4779;48.062;11.672;2023-06-10T01:49:48;7.32;;;6.72;;
9481;SDS011;4779;48.062;11.672;2023-06-10T01:52:15;7.10;;;6.50;;
9481;SDS011;4779;48.062;11.672;2023-06-10T01:54:43;7.47;;;6.80;;
9481;SDS011;4779;48.062;11.672;2023-06-10T01:57:10;6.93;;;6.35;;
9481;SDS011;4779;48.062;11.672;2023-06-10T01:59:37;6.88;;;6.22;;
9481;SDS011;4779;48.062;11.672;2023-06-10T02:02:04;6.57;;;6.07;;
9481;SDS011;4779;48.062;11.672;2023-06-10T02:04:31;6.75;;;6.25;;
9481;SDS011;4779;48.062;11.672;2023-06-10T02:06:58;7.35;;;6.75;;
9481;SDS011;4779;48.062;11.672;2023-06-10T02:09:29;7.38;;;6.72;;
9481;SDS011;4779;48.062;11.672;2023-06-10T02:11:57;6.82;;;6.32;;
9481;SDS011;4779;48.062;11.672;2023-06-10T02:14:24;7.60;;;7.00;;
9481;SDS011;4779;48.062;11.672;2023-06-10T02:16:51;7.03;;;6.43;;
9481;SDS011;4779;48.062;11.672;2023-06-10T02:19:21;7.43;;;6.82;;
9481;SDS011;4779;48.062;11.672;2023-06-10T02:21:48;7.13;;;6.53;;
9481;SDS011;4779;48.062;11.672;2023-06-10T02:24:15;6.75;;;6.20;;
9481;SDS011;4779;48.062;11.672;2023-06-10T02:26:42;6.65;;;6.15;;
9481;SDS011;4779;48.062;11.672;2023-06-10T02:29:11;7.65;;;6.95;;
9481;SDS011;4779;48.062;11.672;2023-06-10T02:31:38;7.50;;;6.80;;
9481;SDS011;4779;48.062;11.672;2023-06-10T02:34:06;7.35;;;6.68;;
9481;SDS011;4779;48.062;11.672;2023-06-10T02:36:33;7.53;;;6.80;;
9481;SDS011;4779;48.062;11.672;2023-06-10T02:39:01;6.78;;;6.18;;
9481;SDS011;4779;48.062;11.672;2023-06-10T02:41:29;7.68;;;6.97;;
9481;SDS011;4779;48.062;11.672;2023-06-10T02:43:56;7.20;;;6.50;;
9481;SDS011;4779;48.062;11.672;2023-06-10T02:46:24;7.25;;;6.65;;
9481;SDS011;4779;48.062;11.672;2023-06-10T02:48:51;6.90;;;6.30;;
9481;SDS011;4779;48.062;11.672;2023-06-10T02:51:18;6.82;;;6.22;;
9481;SDS011;4779;48.062;11.672;2023-06-10T02:53:45;6.93;;;6.32;;
9481;SDS011;4779;48.062;11.672;2023-06-10T02:56:13;6.60;;;6.10;;
9481;SDS011;4779;48.062;11.672;2023-06-10T02:58:42;7.72;;;7.10;;
9481;SDS011;4779;48.062;11.672;2023-06-10T03:01:09;7.40;;;6.80;;
9481;SDS011;4779;48.062;11.672;2023-06-10T03:03:37;8.00;;;7.30;;
9481;SDS011;4779;48.062;11.672;2023-06-10T03:06:07;8.02;;;7.25;;
9481;SDS011;4779;48.062;11.672;2023-06-10T03:08:35;7.53;;;6.82;;
9481;SDS011;4779;48.062;11.672;2023-06-10T03:11:02;7.63;;;6.93;;
9481;SDS011;4779;48.062;11.672;2023-06-10T03:13:29;7.68;;;6.97;;
9481;SDS011;4779;48.062;11.672;2023-06-10T03:15:56;7.53;;;6.93;;
9481;SDS011;4779;48.062;11.672;2023-06-10T03:18:25;7.38;;;6.70;;
9481;SDS011;4779;48.062;11.672;2023-06-10T03:20:54;7.30;;;6.70;;
9481;SDS011;4779;48.062;11.672;2023-06-10T03:23:22;7.60;;;6.90;;
9481;SDS011;4779;48.062;11.672;2023-06-10T03:25:49;7.63;;;7.03;;
9481;SDS011;4779;48.062;11.672;2023-06-10T03:28:16;8.02;;;7.00;;
9481;SDS011;4779;48.062;11.672;2023-06-10T03:30:43;7.50;;;6.90;;
9481;SDS011;4779;48.062;11.672;2023-06-10T03:33:10;8.07;;;7.38;;
9481;SDS011;4779;48.062;11.672;2023-06-10T03:35:37;8.18;;;7.28;;
9481;SDS011;4779;48.062;11.672;2023-06-10T03:38:05;7.93;;;7.22;;
9481;SDS011;4779;48.062;11.672;2023-06-10T03:40:32;7.47;;;6.80;;
9481;SDS011;4779;48.062;11.672;2023-06-10T03:42:59;7.22;;;6.63;;
9481;SDS011;4779;48.062;11.672;2023-06-10T03:45:26;7.38;;;6.72;;
9481;SDS011;4779;48.062;11.672;2023-06-10T03:47:54;6.90;;;6.32;;
9481;SDS011;4779;48.062;11.672;2023-06-10T03:50:22;7.70;;;7.00;;
9481;SDS011;4779;48.062;11.672;2023-06-10T03:52:49;7.53;;;6.65;;
9481;SDS011;4779;48.062;11.672;2023-06-10T03:55:18;7.78;;;7.07;;
9481;SDS011;4779;48.062;11.672;2023-06-10T03:57:47;7.45;;;6.72;;
9481;SDS011;4779;48.062;11.672;2023-06-10T04:00:14;7.50;;;6.88;;
9481;SDS011;4779;48.062;11.672;2023-06-10T04:02:43;8.23;;;7.35;;
9481;SDS011;4779;48.062;11.672;2023-06-10T04:05:13;7.53;;;6.82;;
9481;SDS011;4779;48.062;11.672;2023-06-10T04:07:41;7.97;;;7.20;;
9481;SDS011;4779;48.062;11.672;2023-06-10T04:10:09;8.30;;;7.47;;
9481;SDS011;4779;48.062;11.672;2023-06-10T04:12:37;7.50;;;6.88;;
9481;SDS011;4779;48.062;11.672;2023-06-10T04:15:05;7.70;;;7.00;;
9481;SDS011;4779;48.062;11.672;2023-06-10T04:17:32;8.00;;;7.30;;
9481;SDS011;4779;48.062;11.672;2023-06-10T04:19:59;7.57;;;6.88;;
9481;SDS011;4779;48.062;11.672;2023-06-10T04:22:28;8.25;;;7.22;;
9481;SDS011;4779;48.062;11.672;2023-06-10T04:24:55;7.50;;;6.90;;
9481;SDS011;4779;48.062;11.672;2023-06-10T04:27:23;7.43;;;6.82;;
9481;SDS011;4779;48.062;11.672;2023-06-10T04:29:51;8.23;;;7.47;;
9481;SDS011;4779;48.062;11.672;2023-06-10T04:32:18;7.78;;;7.18;;
9481;SDS011;4779;48.062;11.672;2023-06-10T04:34:45;8.43;;;7.63;;
9481;SDS011;4779;48.062;11.672;2023-06-10T04:37:12;7.82;;;7.13;;
9481;SDS011;4779;48.062;11.672;2023-06-10T04:39:39;7.82;;;7.07;;
9481;SDS011;4779;48.062;11.672;2023-06-10T04:42:07;7.88;;;7.18;;
9481;SDS011;4779;48.062;11.672;2023-06-10T04:44:33;8.80;;;8.00;;
9481;SDS011;4779;48.062;11.672;2023-06-10T04:47:02;8.35;;;7.50;;
9481;SDS011;4779;48.062;11.672;2023-06-10T04:49:29;9.77;;;8.98;;
9481;SDS011;4779;48.062;11.672;2023-06-10T04:51:56;9.18;;;8.48;;
9481;SDS011;4779;48.062;11.672;2023-06-10T04:54:24;9.88;;;9.07;;
9481;SDS011;4779;48.062;11.672;2023-06-10T04:56:51;10.15;;;9.35;;
9481;SDS011;4779;48.062;11.672;2023-06-10T04:59:19;10.05;;;9.15;;
9481;SDS011;4779;48.062;11.672;2023-06-10T05:01:46;8.98;;;8.27;;
9481;SDS011;4779;48.062;11.672;2023-06-10T05:04:14;9.30;;;8.50;;
9481;SDS011;4779;48.062;11.672;2023-06-10T05:06:41;9.40;;;8.60;;
9481;SDS011;4779;48.062;11.672;2023-06-10T05:09:09;9.10;;;8.30;;
9481;SDS011;4779;48.062;11.672;2023-06-10T05:11:35;9.80;;;8.90;;
9481;SDS011;4779;48.062;11.672;2023-06-10T05:14:02;9.02;;;8.25;;
9481;SDS011;4779;48.062;11.672;2023-06-10T05:16:30;10.27;;;9.38;;
9481;SDS011;4779;48.062;11.672;2023-06-10T05:18:57;10.35;;;9.55;;
9481;SDS011;4779;48.062;11.672;2023-06-10T05:21:25;9.80;;;8.90;;
9481;SDS011;4779;48.062;11.672;2023-06-10T05:23:52;9.82;;;8.93;;
9481;SDS011;4779;48.062;11.672;2023-06-10T05:26:19;9.63;;;8.85;;
9481;SDS011;4779;48.062;11.672;2023-06-10T05:28:46;9.40;;;8.60;;
9481;SDS011;4779;48.062;11.672;2023-06-10T05:31:13;10.05;;;9.15;;
9481;SDS011;4779;48.062;11.672;2023-06-10T05:33:40;10.27;;;9.30;;
9481;SDS011;4779;48.062;11.672;2023-06-10T05:36:07;9.98;;;9.10;;
9481;SDS011;4779;48.062;11.672;2023-06-10T05:38:35;10.18;;;9.38;;
9481;SDS011;4779;48.062;11.672;2023-06-10T05:41:02;10.40;;;9.60;;
9481;SDS011;4779;48.062;11.672;2023-06-10T05:43:29;11.50;;;10.50;;
9481;SDS011;4779;48.062;11.672;2023-06-10T05:45:56;9.88;;;8.98;;
9481;SDS011;4779;48.062;11.672;2023-06-10T05:48:23;10.30;;;9.40;;
9481;SDS011;4779;48.062;11.672;2023-06-10T05:50:50;10.40;;;9.40;;
9481;SDS011;4779;48.062;11.672;2023-06-10T05:53:16;10.05;;;9.13;;
9481;SDS011;4779;48.062;11.672;2023-06-10T05:55:45;10.23;;;9.32;;
9481;SDS011;4779;48.062;11.672;2023-06-10T05:58:13;9.57;;;8.77;;
9481;SDS011;4779;48.062;11.672;2023-06-10T06:00:40;10.27;;;9.27;;
9481;SDS011;4779;48.062;11.672;2023-06-10T06:03:07;9.00;;;8.20;;
9481;SDS011;4779;48.062;11.672;2023-06-10T06:05:35;9.73;;;8.88;;
9481;SDS011;4779;48.062;11.672;2023-06-10T06:08:03;8.90;;;8.00;;
9481;SDS011;4779;48.062;11.672;2023-06-10T06:10:31;9.80;;;9.00;;
9481;SDS011;4779;48.062;11.672;2023-06-10T06:12:59;9.30;;;8.50;;
9481;SDS011;4779;48.062;11.672;2023-06-10T06:15:26;9.68;;;8.80;;
9481;SDS011;4779;48.062;11.672;2023-06-10T06:17:53;9.50;;;8.70;;
9481;SDS011;4779;48.062;11.672;2023-06-10T06:20:20;9.60;;;8.80;;
9481;SDS011;4779;48.062;11.672;2023-06-10T06:22:48;10.00;;;9.20;;
9481;SDS011;4779;48.062;11.672;2023-06-10T06:25:15;9.00;;;8.27;;
9481;SDS011;4779;48.062;11.672;2023-06-10T06:27:42;9.98;;;9.07;;
9481;SDS011;4779;48.062;11.672;2023-06-10T06:30:11;8.57;;;7.88;;
9481;SDS011;4779;48.062;11.672;2023-06-10T06:32:38;10.25;;;9.35;;
9481;SDS011;4779;48.062;11.672;2023-06-10T06:35:05;9.70;;;8.80;;
9481;SDS011;4779;48.062;11.672;2023-06-10T06:37:33;9.25;;;8.48;;
9481;SDS011;4779;48.062;11.672;2023-06-10T06:40:00;9.40;;;8.50;;
9481;SDS011;4779;48.062;11.672;2023-06-10T06:42:27;9.50;;;8.65;;
9481;SDS011;4779;48.062;11.672;2023-06-10T06:44:54;9.48;;;8.57;;
9481;SDS011;4779;48.062;11.672;2023-06-10T06:47:22;8.63;;;7.72;;
9481;SDS011;4779;48.062;11.672;2023-06-10T06:49:49;8.73;;;7.93;;
9481;SDS011;4779;48.062;11.672;2023-06-10T06:52:16;8.02;;;7.43;;
9481;SDS011;4779;48.062;11.672;2023-06-10T06:54:45;8.20;;;7.50;;
9481;SDS011;4779;48.062;11.672;2023-06-10T06:57:12;8.40;;;7.50;;
9481;SDS011;4779;48.062;11.672;2023-06-10T06:59:38;8.55;;;7.70;;
9481;SDS011;4779;48.062;11.672;2023-06-10T07:02:05;8.43;;;7.60;;
9481;SDS011;4779;48.062;11.672;2023-06-10T07:04:34;8.85;;;7.95;;
9481;SDS011;4779;48.062;11.672;2023-06-10T07:07:01;7.97;;;7.18;;
9481;SDS011;4779;48.062;11.672;2023-06-10T07:09:28;8.18;;;7.38;;
9481;SDS011;4779;48.062;11.672;2023-06-10T07:11:55;9.00;;;7.60;;
9481;SDS011;4779;48.062;11.672;2023-06-10T07:14:22;8.02;;;7.32;;
9481;SDS011;4779;48.062;11.672;2023-06-10T07:16:48;8.15;;;7.45;;
9481;SDS011;4779;48.062;11.672;2023-06-10T07:19:16;7.35;;;6.68;;
9481;SDS011;4779;48.062;11.672;2023-06-10T07:21:44;7.05;;;6.45;;
9481;SDS011;4779;48.062;11.672;2023-06-10T07:24:11;7.47;;;6.68;;
9481;SDS011;4779;48.062;11.672;2023-06-10T07:26:38;6.43;;;5.82;;
9481;SDS011;4779;48.062;11.672;2023-06-10T07:29:05;6.40;;;5.90;;
9481;SDS011;4779;48.062;11.672;2023-06-10T07:31:32;6.60;;;6.10;;
9481;SDS011;4779;48.062;11.672;2023-06-10T07:33:59;7.13;;;6.40;;
9481;SDS011;4779;48.062;11.672;2023-06-10T07:36:26;6.57;;;5.93;;
9481;SDS011;4779;48.062;11.672;2023-06-10T07:38:55;5.65;;;5.20;;
9481;SDS011;4779;48.062;11.672;2023-06-10T07:41:22;6.05;;;5.55;;
9481;SDS011;4779;48.062;11.672;2023-06-10T07:43:50;6.15;;;5.22;;
9481;SDS011;4779;48.062;11.672;2023-06-10T07:46:19;6.90;;;5.50;;
9481;SDS011;4779;48.062;11.672;2023-06-10T07:48:47;6.03;;;5.43;;
9481;SDS011;4779;48.062;11.672;2023-06-10T07:51:14;5.82;;;5.28;;
9481;SDS011;4779;48.062;11.672;2023-06-10T07:53:42;5.82;;;5.40;;
9481;SDS011;4779;48.062;11.672;2023-06-10T07:56:10;5.60;;;5.10;;
9481;SDS011;4779;48.062;11.672;2023-06-10T07:58:38;5.95;;;5.43;;
9481;SDS011;4779;48.062;11.672;2023-06-10T08:01:05;5.45;;;5.05;;
9481;SDS011;4779;48.062;11.672;2023-06-10T08:03:32;5.35;;;4.95;;
9481;SDS011;4779;48.062;11.672;2023-06-10T08:05:59;5.30;;;4.90;;
9481;SDS011;4779;48.062;11.672;2023-06-10T08:08:26;4.68;;;4.28;;
9481;SDS011;4779;48.062;11.672;2023-06-10T08:10:53;4.82;;;4.43;;
9481;SDS011;4779;48.062;11.672;2023-06-10T08:13:21;4.70;;;4.30;;
9481;SDS011;4779;48.062;11.672;2023-06-10T08:15:48;4.57;;;4.28;;
9481;SDS011;4779;48.062;11.672;2023-06-10T08:18:16;4.53;;;4.22;;
9481;SDS011;4779;48.062;11.672;2023-06-10T08:20:43;4.78;;;4.40;;
9481;SDS011;4779;48.062;11.672;2023-06-10T08:23:10;5.03;;;4.63;;
9481;SDS011;4779;48.062;11.672;2023-06-10T08:25:36;5.00;;;4.60;;
9481;SDS011;4779;48.062;11.672;2023-06-10T08:28:03;5.50;;;4.75;;
9481;SDS011;4779;48.062;11.672;2023-06-10T08:30:32;4.80;;;4.50;;
9481;SDS011;4779;48.062;11.672;2023-06-10T08:32:59;4.57;;;4.18;;
9481;SDS011;4779;48.062;11.672;2023-06-10T08:35:26;4.03;;;3.72;;
9481;SDS011;4779;48.062;11.672;2023-06-10T08:37:53;3.97;;;3.67;;
9481;SDS011;4779;48.062;11.672;2023-06-10T08:40:20;4.32;;;3.92;;
9481;SDS011;4779;48.062;11.672;2023-06-10T08:42:48;4.22;;;3.92;;
9481;SDS011;4779;48.062;11.672;2023-06-10T08:45:19;4.25;;;3.95;;
9481;SDS011;4779;48.062;11.672;2023-06-10T08:47:50;3.88;;;3.58;;
9481;SDS011;4779;48.062;11.672;2023-06-10T08:50:18;4.43;;;4.03;;
9481;SDS011;4779;48.062;11.672;2023-06-10T08:52:46;4.35;;;3.95;;
9481;SDS011;4779;48.062;11.672;2023-06-10T08:55:18;3.53;;;3.33;;
9481;SDS011;4779;48.062;11.672;2023-06-10T08:57:51;3.63;;;3.33;;
9481;SDS011;4779;48.062;11.672;2023-06-10T09:00:18;3.40;;;3.20;;
9481;SDS011;4779;48.062;11.672;2023-06-10T09:02:45;3.70;;;3.40;;
9481;SDS011;4779;48.062;11.672;2023-06-10T09:05:14;4.60;;;4.30;;
9481;SDS011;4779;48.062;11.672;2023-06-10T09:07:42;4.10;;;3.80;;
9481;SDS011;4779;48.062;11.672;2023-06-10T09:10:10;4.00;;;3.70;;
9481;SDS011;4779;48.062;11.672;2023-06-10T09:12:38;3.67;;;3.33;;
9481;SDS011;4779;48.062;11.672;2023-06-10T09:15:05;3.80;;;3.50;;
9481;SDS011;4779;48.062;11.672;2023-06-10T09:17:33;3.80;;;3.50;;
9481;SDS011;4779;48.062;11.672;2023-06-10T09:20:01;3.83;;;3.40;;
9481;SDS011;4779;48.062;11.672;2023-06-10T09:22:30;3.72;;;3.42;;
9481;SDS011;4779;48.062;11.672;2023-06-10T09:25:03;3.90;;;3.60;;
9481;SDS011;4779;48.062;11.672;2023-06-10T09:27:34;4.43;;;4.03;;
9481;SDS011;4779;48.062;11.672;2023-06-10T09:30:22;3.30;;;3.00;;
9481;SDS011;4779;48.062;11.672;2023-06-10T09:32:52;4.03;;;3.72;;
9481;SDS011;4779;48.062;11.672;2023-06-10T09:35:21;6.30;;;4.00;;
9481;SDS011;4779;48.062;11.672;2023-06-10T09:37:51;3.60;;;3.30;;
9481;SDS011;4779;48.062;11.672;2023-06-10T09:40:18;4.05;;;3.75;;
9481;SDS011;4779;48.062;11.672;2023-06-10T09:42:45;3.90;;;3.50;;
9481;SDS011;4779;48.062;11.672;2023-06-10T09:45:18;4.43;;;4.03;;
9481;SDS011;4779;48.062;11.672;2023-06-10T09:47:46;3.83;;;3.53;;
9481;SDS011;4779;48.062;11.672;2023-06-10T09:50:13;4.15;;;3.85;;
9481;SDS011;4779;48.062;11.672;2023-06-10T09:52:39;5.93;;;4.25;;
9481;SDS011;4779;48.062;11.672;2023-06-10T09:55:09;4.30;;;3.90;;
9481;SDS011;4779;48.062;11.672;2023-06-10T09:57:36;4.63;;;4.25;;
9481;SDS011;4779;48.062;11.672;2023-06-10T10:00:05;4.90;;;4.50;;
9481;SDS011;4779;48.062;11.672;2023-06-10T10:02:33;4.95;;;4.30;;
9481;SDS011;4779;48.062;11.672;2023-06-10T10:05:11;4.70;;;4.28;;
9481;SDS011;4779;48.062;11.672;2023-06-10T10:07:39;4.10;;;3.80;;
9481;SDS011;4779;48.062;11.672;2023-06-10T10:10:06;4.22;;;3.92;;
9481;SDS011;4779;48.062;11.672;2023-06-10T10:12:35;4.30;;;3.90;;
9481;SDS011;4779;48.062;11.672;2023-06-10T10:15:04;4.15;;;3.85;;
9481;SDS011;4779;48.062;11.672;2023-06-10T10:17:34;4.20;;;3.90;;
9481;SDS011;4779;48.062;11.672;2023-06-10T10:20:04;4.20;;;3.90;;
9481;SDS011;4779;48.062;11.672;2023-06-10T10:22:35;4.18;;;3.85;;
9481;SDS011;4779;48.062;11.672;2023-06-10T10:25:06;4.05;;;3.75;;
9481;SDS011;4779;48.062;11.672;2023-06-10T10:27:40;3.90;;;3.60;;
9481;SDS011;4779;48.062;11.672;2023-06-10T10:30:11;3.83;;;3.45;;
9481;SDS011;4779;48.062;11.672;2023-06-10T10:32:40;4.15;;;3.80;;
9481;SDS011;4779;48.062;11.672;2023-06-10T10:35:14;5.13;;;3.72;;
9481;SDS011;4779;48.062;11.672;2023-06-10T10:37:43;3.78;;;3.47;;
9481;SDS011;4779;48.062;11.672;2023-06-10T10:40:13;3.60;;;3.40;;
9481;SDS011;4779;48.062;11.672;2023-06-10T10:42:40;4.25;;;3.92;;
9481;SDS011;4779;48.062;11.672;2023-06-10T10:45:08;3.75;;;3.53;;
9481;SDS011;4779;48.062;11.672;2023-06-10T10:47:36;3.78;;;3.53;;
9481;SDS011;4779;48.062;11.672;2023-06-10T10:50:12;3.65;;;3.35;;
9481;SDS011;4779;48.062;11.672;2023-06-10T10:52:46;4.05;;;3.65;;
9481;SDS011;4779;48.062;11.672;2023-06-10T10:55:20;3.80;;;3.50;;
9481;SDS011;4779;48.062;11.672;2023-06-10T10:57:53;4.00;;;3.65;;
9481;SDS011;4779;48.062;11.672;2023-06-10T11:00:24;3.70;;;3.40;;
9481;SDS011;4779;48.062;11.672;2023-06-10T11:02:57;4.57;;;3.35;;
9481;SDS011;4779;48.062;11.672;2023-06-10T11:05:32;3.60;;;3.30;;
9481;SDS011;4779;48.062;11.672;2023-06-10T11:08:03;3.40;;;3.20;;
9481;SDS011;4779;48.062;11.672;2023-06-10T11:10:32;3.40;;;3.20;;
9481;SDS011;4779;48.062;11.672;2023-06-10T11:13:00;4.03;;;3.38;;
9481;SDS011;4779;48.062;11.672;2023-06-10T11:15:32;3.83;;;3.53;;
9481;SDS011;4779;48.062;11.672;2023-06-10T11:18:09;3.38;;;3.17;;
9481;SDS011;4779;48.062;11.672;2023-06-10T11:20:57;3.38;;;3.17;;
9481;SDS011;4779;48.062;11.672;2023-06-10T11:23:25;3.47;;;3.17;;
9481;SDS011;4779;48.062;11.672;2023-06-10T11:26:19;3.20;;;3.00;;
9481;SDS011;4779;48.062;11.672;2023-06-10T11:29:05;3.42;;;3.13;;
9481;SDS011;4779;48.062;11.672;2023-06-10T11:31:39;3.40;;;3.10;;
9481;SDS011;4779;48.062;11.672;2023-06-10T11:34:13;2.90;;;2.70;;
9481;SDS011;4779;48.062;11.672;2023-06-10T11:36:40;2.90;;;2.45;;
9481;SDS011;4779;48.062;11.672;2023-06-10T11:39:10;3.35;;;3.15;;
9481;SDS011;4779;48.062;11.672;2023-06-10T11:41:39;3.00;;;2.80;;
9481;SDS011;4779;48.062;11.672;2023-06-10T11:44:10;2.67;;;2.47;;
9481;SDS011;4779;48.062;11.672;2023-06-10T11:46:37;2.80;;;2.60;;
9481;SDS011;4779;48.062;11.672;2023-06-10T11:49:05;2.90;;;2.70;;
9481;SDS011;4779;48.062;11.672;2023-06-10T11:51:33;2.70;;;2.50;;
9481;SDS011;4779;48.062;11.672;2023-06-10T11:54:01;4.13;;;2.70;;
9481;SDS011;4779;48.062;11.672;2023-06-10T11:56:29;2.42;;;2.33;;
9481;SDS011;4779;48.062;11.672;2023-06-10T11:58:58;2.80;;;2.60;;
9481;SDS011;4779;48.062;11.672;2023-06-10T12:01:29;2.67;;;2.47;;
9481;SDS011;4779;48.062;11.672;2023-06-10T12:03:58;2.92;;;2.63;;
9481;SDS011;4779;48.062;11.672;2023-06-10T12:06:26;2.83;;;2.63;;
9481;SDS011;4779;48.062;11.672;2023-06-10T12:08:53;2.58;;;2.38;;
9481;SDS011;4779;48.062;11.672;2023-06-10T12:11:21;2.90;;;2.70;;
9481;SDS011;4779;48.062;11.672;2023-06-10T12:13:49;2.63;;;2.42;;
9481;SDS011;4779;48.062;11.672;2023-06-10T12:16:17;4.10;;;2.80;;
9481;SDS011;4779;48.062;11.672;2023-06-10T12:18:45;2.58;;;2.35;;
9481;SDS011;4779;48.062;11.672;2023-06-10T12:21:20;2.75;;;2.55;;
9481;SDS011;4779;48.062;11.672;2023-06-10T12:24:02;2.30;;;2.17;;
9481;SDS011;4779;48.062;11.672;2023-06-10T12:26:34;2.67;;;2.47;;
9481;SDS011;4779;48.062;11.672;2023-06-10T12:29:02;2.92;;;2.72;;
9481;SDS011;4779;48.062;11.672;2023-06-10T12:31:57;2.45;;;2.28;;
9481;SDS011;4779;48.062;11.672;2023-06-10T12:34:29;2.92;;;2.72;;
9481;SDS011;4779;48.062;11.672;2023-06-10T12:36:56;3.42;;;2.50;;
9481;SDS011;4779;48.062;11.672;2023-06-10T12:39:24;2.38;;;2.17;;
9481;SDS011;4779;48.062;11.672;2023-06-10T12:41:51;2.70;;;2.50;;
9481;SDS011;4779;48.062;11.672;2023-06-10T12:44:18;2.60;;;2.40;;
9481;SDS011;4779;48.062;11.672;2023-06-10T12:46:54;3.85;;;2.25;;
9481;SDS011;4779;48.062;11.672;2023-06-10T12:49:23;3.38;;;2.80;;
9481;SDS011;4779;48.062;11.672;2023-06-10T12:51:51;2.70;;;2.50;;
9481;SDS011;4779;48.062;11.672;2023-06-10T12:54:19;3.10;;;2.90;;
9481;SDS011;4779;48.062;11.672;2023-06-10T12:56:46;3.00;;;2.80;;
9481;SDS011;4779;48.062;11.672;2023-06-10T12:59:13;2.97;;;2.67;;
9481;SDS011;4779;48.062;11.672;2023-06-10T13:01:40;3.00;;;2.80;;
9481;SDS011;4779;48.062;11.672;2023-06-10T13:04:09;3.13;;;2.83;;
9481;SDS011;4779;48.062;11.672;2023-06-10T13:06:36;3.13;;;2.92;;
9481;SDS011;4779;48.062;11.672;2023-06-10T13:09:04;2.90;;;2.70;;
9481;SDS011;4779;48.062;11.672;2023-06-10T13:11:32;3.20;;;2.90;;
9481;SDS011;4779;48.062;11.672;2023-06-10T13:14:00;3.35;;;3.15;;
9481;SDS011;4779;48.062;11.672;2023-06-10T13:16:27;3.40;;;3.20;;
9481;SDS011;4779;48.062;11.672;2023-06-10T13:18:55;3.47;;;3.17;;
9481;SDS011;4779;48.062;11.672;2023-06-10T13:21:24;4.07;;;3.67;;
9481;SDS011;4779;48.062;11.672;2023-06-10T13:23:51;4.00;;;3.47;;
9481;SDS011;4779;48.062;11.672;2023-06-10T13:26:18;3.92;;;3.60;;
9481;SDS011;4779;48.062;11.672;2023-06-10T13:28:45;4.00;;;3.63;;
9481;SDS011;4779;48.062;11.672;2023-06-10T13:31:13;3.95;;;3.65;;
9481;SDS011;4779;48.062;11.672;2023-06-10T13:33:40;3.90;;;3.60;;
9481;SDS011;4779;48.062;11.672;2023-06-10T13:36:09;3.28;;;3.05;;
9481;SDS011;4779;48.062;11.672;2023-06-10T13:38:38;3.80;;;3.50;;
9481;SDS011;4779;48.062;11.672;2023-06-10T13:41:05;3.55;;;3.25;;
9481;SDS011;4779;48.062;11.672;2023-06-10T13:43:32;3.45;;;3.15;;
9481;SDS011;4779;48.062;11.672;2023-06-10T13:45:59;5.15;;;3.40;;
9481;SDS011;4779;48.062;11.672;2023-06-10T13:48:26;3.38;;;3.08;;
9481;SDS011;4779;48.062;11.672;2023-06-10T13:50:53;4.20;;;3.20;;
9481;SDS011;4779;48.062;11.672;2023-06-10T13:53:20;3.00;;;2.80;;
9481;SDS011;4779;48.062;11.672;2023-06-10T13:55:48;3.20;;;2.90;;
9481;SDS011;4779;48.062;11.672;2023-06-10T13:58:15;3.30;;;3.08;;
9481;SDS011;4779;48.062;11.672;2023-06-10T14:00:42;2.95;;;2.72;;
9481;SDS011;4779;48.062;11.672;2023-06-10T14:03:09;4.10;;;2.80;;
9481;SDS011;4779;48.062;11.672;2023-06-10T14:05:36;3.10;;;2.88;;
9481;SDS011;4779;48.062;11.672;2023-06-10T14:08:07;2.90;;;2.67;;
9481;SDS011;4779;48.062;11.672;2023-06-10T14:10:36;2.58;;;2.40;;
9481;SDS011;4779;48.062;11.672;2023-06-10T14:13:05;3.13;;;2.85;;
9481;SDS011;4779;48.062;11.672;2023-06-10T14:15:32;2.90;;;2.70;;
9481;SDS011;4779;48.062;11.672;2023-06-10T14:17:59;3.35;;;2.95;;
9481;SDS011;4779;48.062;11.672;2023-06-10T14:20:26;2.95;;;2.75;;
9481;SDS011;4779;48.062;11.672;2023-06-10T14:22:56;2.80;;;2.60;;
9481;SDS011;4779;48.062;11.672;2023-06-10T14:25:23;3.00;;;2.80;;
9481;SDS011;4779;48.062;11.672;2023-06-10T14:27:50;2.97;;;2.78;;
9481;SDS011;4779;48.062;11.672;2023-06-10T14:30:20;3.30;;;3.00;;
9481;SDS011;4779;48.062;11.672;2023-06-10T14:32:47;3.20;;;2.90;;
9481;SDS011;4779;48.062;11.672;2023-06-10T14:35:14;3.45;;;3.10;;
9481;SDS011;4779;48.062;11.672;2023-06-10T14:37:41;3.60;;;3.08;;
9481;SDS011;4779;48.062;11.672;2023-06-10T14:40:08;3.58;;;3.28;;
9481;SDS011;4779;48.062;11.672;2023-06-10T14:42:35;3.50;;;3.20;;
9481;SDS011;4779;48.062;11.672;2023-06-10T14:45:03;3.50;;;3.20;;
9481;SDS011;4779;48.062;11.672;2023-06-10T14:47:33;3.42;;;3.20;;
9481;SDS011;4779;48.062;11.672;2023-06-10T14:50:00;3.10;;;2.90;;
9481;SDS011;4779;48.062;11.672;2023-06-10T14:52:26;3.72;;;3.42;;
9481;SDS011;4779;48.062;11.672;2023-06-10T14:54:53;3.55;;;2.80;;
9481;SDS011;4779;48.062;11.672;2023-06-10T14:57:20;2.88;;;2.67;;
9481;SDS011;4779;48.062;11.672;2023-06-10T14:59:47;2.95;;;2.72;;
9481;SDS011;4779;48.062;11.672;2023-06-10T15:02:14;2.88;;;2.67;;
9481;SDS011;4779;48.062;11.672;2023-06-10T15:04:42;2.90;;;2.70;;
9481;SDS011;4779;48.062;11.672;2023-06-10T15:07:09;3.10;;;2.90;;